Alford, Florida
Current Conditions -  °F | °C
As of 4:53 PM on Saturday 20 Dec 2014 (Local Time) from KMAI Reporting Station
Light Rain Light Rain  
Wind Chill: 55°   Ceiling: 6000
Heat Index: 55°   Visibility: 8mi
Dew Point: 55°   Wind: 3mph
Humidity: 100%   Direction: 10°N
Pressure: 30.11"   Gusts: NA
Location:  30.69°N, 85.39°W
Report Text: KMAI 202253Z AUTO 01003KT 8SM -RA OVC060 13/13 A3011 RMK AO2 SLP196 P0001 T01280128 $
Loading
Personal Weather Stations






























Interactive Weather Map New forecast layout! Learn more

10-Day Weather Forecast

Advertisements
Track Severe Weather on mobile